Time;durP1;ratioP1;P1;durP2;ratioP2;P2;SDS_P1;SDS_P2;PMS_P1;PMS_P2;Temp;Humidity;BMP_temperature;BMP_pressure;BME280_temperature;BME280_humidity;BME280_pressure;Samples;Min_cycle;Max_cycle;Signal;HPM_P1;HPM_P2
2022/06/13 00:01:19;;;;;;;12.68;4.90;;;14.60;99.90;;;;;;5107841;28;20915;-78
2022/06/13 00:03:45;;;;;;;13.60;4.80;;;14.60;99.90;;;;;;5090864;28;20423;-78
2022/06/13 00:06:12;;;;;;;12.05;4.88;;;14.60;99.90;;;;;;5108079;28;20732;-78
2022/06/13 00:08:38;;;;;;;13.13;4.97;;;14.50;99.90;;;;;;5108781;28;21136;-77
2022/06/13 00:11:09;;;;;;;11.40;4.75;;;14.50;99.90;;;;;;5109150;28;20392;-78
2022/06/13 00:13:36;;;;;;;12.68;4.93;;;14.50;99.90;;;;;;5108851;28;20902;-78
2022/06/13 00:16:03;;;;;;;15.90;5.53;;;14.40;99.90;;;;;;5107268;28;20957;-77
2022/06/13 00:18:28;;;;;;;15.98;5.32;;;14.40;99.90;;;;;;5107599;28;20428;-78
2022/06/13 00:20:54;;;;;;;12.83;4.77;;;14.40;99.90;;;;;;5107807;28;20751;-78
2022/06/13 00:23:21;;;;;;;13.37;5.13;;;14.30;99.90;;;;;;5107881;28;20435;-78
2022/06/13 00:25:47;;;;;;;11.63;5.30;;;14.20;99.90;;;;;;5035989;28;20458;-78
2022/06/13 00:28:12;;;;;;;13.73;5.33;;;14.20;99.90;;;;;;5108783;28;20927;-77
2022/06/13 00:30:38;;;;;;;11.45;5.10;;;14.20;99.90;;;;;;5097454;28;20411;-78
2022/06/13 00:33:04;;;;;;;13.87;5.10;;;14.10;99.90;;;;;;5060658;28;20400;-78
2022/06/13 00:35:29;;;;;;;12.82;5.38;;;14.10;99.90;;;;;;5108470;28;20396;-77
2022/06/13 00:37:55;;;;;;;13.33;5.60;;;14.10;99.90;;;;;;5090811;28;21067;-77
2022/06/13 00:40:22;;;;;;;12.25;5.57;;;14.10;99.90;;;;;;5107402;28;20774;-78
2022/06/13 00:42:48;;;;;;;14.00;5.53;;;14.00;99.90;;;;;;5107235;28;20415;-78
2022/06/13 00:45:16;;;;;;;13.00;5.65;;;14.00;99.90;;;;;;5107333;28;20400;-78
2022/06/13 00:47:44;;;;;;;12.75;5.70;;;14.00;99.90;;;;;;5107249;28;20499;-78
2022/06/13 00:50:22;;;;;;;11.30;5.70;;;14.00;99.90;;;;;;5108658;28;20469;-78
2022/06/13 00:52:51;;;;;;;13.73;5.67;;;13.90;99.90;;;;;;5107175;28;20412;-78
2022/06/13 00:55:25;;;;;;;13.20;5.68;;;13.90;99.90;;;;;;5107209;28;20443;-78
2022/06/13 00:57:50;;;;;;;11.17;5.80;;;13.90;99.90;;;;;;5106956;28;20499;-78
2022/06/13 01:00:18;;;;;;;15.88;5.60;;;13.90;99.90;;;;;;5107032;28;20412;-78
2022/06/13 01:02:47;;;;;;;15.13;6.28;;;13.90;99.90;;;;;;5107244;28;20496;-78
2022/06/13 01:05:16;;;;;;;12.80;5.53;;;13.90;99.90;;;;;;5107716;28;20909;-78
2022/06/13 01:07:42;;;;;;;14.48;6.05;;;13.90;99.90;;;;;;5108648;28;20404;-79
2022/06/13 01:12:54;;;;;;;11.95;5.13;;;13.90;99.90;;;;;;5107548;28;20419;-78
2022/06/13 01:15:38;;;;;;;15.20;5.60;;;13.90;99.90;;;;;;5107112;28;20544;-78
2022/06/13 01:18:40;;;;;;;11.63;5.10;;;14.00;99.90;;;;;;5106376;28;20518;-78
2022/06/13 01:21:18;;;;;;;11.93;5.40;;;14.00;99.90;;;;;;5038888;28;20427;-78
2022/06/13 01:24:04;;;;;;;12.82;5.10;;;14.00;99.90;;;;;;5112126;28;20440;-79
2022/06/13 01:27:04;;;;;;;12.82;5.05;;;14.00;99.90;;;;;;5093864;28;20420;-78
2022/06/13 01:30:11;;;;;;;13.32;5.20;;;14.00;99.90;;;;;;5032401;28;20451;-78
2022/06/13 01:33:01;;;;;;;13.18;5.10;;;14.00;99.90;;;;;;5088754;28;20914;-78
2022/06/13 01:35:49;;;;;;;12.23;5.30;;;14.00;99.90;;;;;;5110660;28;20408;-78
2022/06/13 01:38:54;;;;;;;12.88;5.53;;;14.00;99.90;;;;;;5111928;28;20464;-78
2022/06/13 01:41:25;;;;;;;12.75;5.50;;;14.00;99.90;;;;;;5110873;28;20423;-78
2022/06/13 01:44:17;;;;;;;11.23;5.18;;;14.10;99.90;;;;;;5111957;28;20400;-78
2022/06/13 01:47:14;;;;;;;12.82;5.75;;;14.10;99.90;;;;;;5026631;28;20473;-78
2022/06/13 01:50:02;;;;;;;13.30;5.45;;;14.10;99.90;;;;;;5110348;28;20431;-78
2022/06/13 01:52:52;;;;;;;13.27;5.63;;;14.10;99.90;;;;;;5110237;28;20816;-78
2022/06/13 01:55:36;;;;;;;14.88;5.82;;;14.10;99.90;;;;;;5109832;28;20412;-78
2022/06/13 01:58:24;;;;;;;17.92;6.38;;;14.10;99.90;;;;;;5109732;28;20952;-78
2022/06/13 02:01:13;;;;;;;15.63;6.30;;;14.10;99.90;;;;;;5109894;28;20416;-78
2022/06/13 02:03:45;;;;;;;13.93;5.93;;;14.10;99.90;;;;;;5109965;28;20423;-78
2022/06/13 02:06:19;;;;;;;14.77;6.13;;;14.10;99.90;;;;;;5110390;28;20762;-78
2022/06/13 02:09:02;;;;;;;14.00;5.88;;;14.10;99.90;;;;;;5109954;28;20412;-78
2022/06/13 02:11:45;;;;;;;14.73;6.10;;;14.20;99.90;;;;;;5110597;28;20408;-79
2022/06/13 02:14:23;;;;;;;15.45;6.15;;;14.20;99.90;;;;;;5031480;28;20507;-79
2022/06/13 02:17:06;;;;;;;15.95;6.35;;;14.20;99.90;;;;;;5092935;28;20408;-78
2022/06/13 02:19:38;;;;;;;15.38;6.68;;;14.20;99.90;;;;;;5111617;28;20435;-78
2022/06/13 02:22:32;;;;;;;15.55;6.57;;;14.20;99.90;;;;;;5061767;28;20421;-78
2022/06/13 02:25:02;;;;;;;19.38;6.57;;;14.20;99.90;;;;;;5065154;28;20416;-78
2022/06/13 02:27:38;;;;;;;15.80;6.68;;;14.20;99.90;;;;;;5060963;28;20441;-80
2022/06/13 02:30:12;;;;;;;17.33;7.07;;;14.10;99.90;;;;;;5018004;28;20442;-78
2022/06/13 02:32:46;;;;;;;15.27;6.57;;;14.10;99.90;;;;;;5033228;28;20416;-78
2022/06/13 02:35:25;;;;;;;14.70;6.05;;;14.10;99.90;;;;;;5109970;28;20416;-79
2022/06/13 02:37:56;;;;;;;16.30;5.93;;;14.10;99.90;;;;;;5037465;28;20519;-78
2022/06/13 02:40:28;;;;;;;13.18;5.93;;;14.10;99.90;;;;;;5109698;28;20416;-78
2022/06/13 02:43:12;;;;;;;13.77;5.88;;;14.20;99.90;;;;;;5111005;28;20465;-78
2022/06/13 02:45:56;;;;;;;15.23;6.28;;;14.20;99.90;;;;;;5043765;28;21041;-79
2022/06/13 02:48:39;;;;;;;12.48;5.80;;;14.20;99.90;;;;;;5109358;28;20438;-78
2022/06/13 02:51:17;;;;;;;13.80;6.18;;;14.20;99.90;;;;;;5086386;28;20401;-78
2022/06/13 02:53:54;;;;;;;16.40;6.28;;;14.20;99.90;;;;;;5071756;28;20404;-78
2022/06/13 02:56:28;;;;;;;15.50;6.28;;;14.20;99.90;;;;;;5077420;28;20421;-78
2022/06/13 02:59:32;;;;;;;11.27;5.88;;;14.20;99.90;;;;;;5044307;28;20515;-79
2022/06/13 03:02:00;;;;;;;14.65;6.15;;;14.20;99.90;;;;;;5101944;28;20857;-78
2022/06/13 03:04:39;;;;;;;14.38;5.97;;;14.10;99.90;;;;;;5070532;28;20910;-78
2022/06/13 03:07:26;;;;;;;15.65;6.32;;;14.10;99.90;;;;;;5022826;28;20425;-78
2022/06/13 03:10:11;;;;;;;13.65;5.80;;;14.10;99.90;;;;;;5046417;28;20436;-78
2022/06/13 03:12:53;;;;;;;13.35;5.90;;;14.10;99.90;;;;;;4994455;28;20442;-78
2022/06/13 03:15:42;;;;;;;13.85;5.97;;;14.10;99.90;;;;;;5005466;28;20421;-78
2022/06/13 03:18:15;;;;;;;14.95;5.90;;;14.10;99.90;;;;;;4992956;28;20442;-78
2022/06/13 03:20:47;;;;;;;13.88;5.45;;;14.10;99.90;;;;;;5004030;28;20429;-78
2022/06/13 03:23:19;;;;;;;14.20;5.80;;;14.10;99.90;;;;;;5006896;28;20409;-78
2022/06/13 03:26:02;;;;;;;13.18;5.35;;;14.10;99.90;;;;;;5078204;28;20503;-78
2022/06/13 03:28:44;;;;;;;13.02;5.20;;;14.10;99.90;;;;;;5005388;28;20424;-79
2022/06/13 03:31:21;;;;;;;13.20;5.95;;;14.10;99.90;;;;;;5005798;28;20451;-78
2022/06/13 03:33:50;;;;;;;14.38;5.70;;;14.20;99.90;;;;;;5043736;28;20407;-79
2022/06/13 03:36:43;;;;;;;13.20;5.43;;;14.20;99.90;;;;;;5052410;28;20420;-78
2022/06/13 03:39:18;;;;;;;13.25;5.55;;;14.20;99.90;;;;;;5109899;28;20424;-78
2022/06/13 03:41:52;;;;;;;15.27;6.13;;;14.20;99.90;;;;;;5010620;28;20433;-78
2022/06/13 03:44:24;;;;;;;13.47;5.80;;;14.20;99.90;;;;;;5036807;28;20971;-78
2022/06/13 03:47:09;;;;;;;15.32;6.05;;;14.10;99.90;;;;;;5042565;28;20417;-78
2022/06/13 03:49:43;;;;;;;12.93;5.13;;;14.10;99.90;;;;;;5009667;28;21021;-78
2022/06/13 03:52:11;;;;;;;12.77;5.45;;;14.10;99.90;;;;;;5080529;28;20445;-78
2022/06/13 03:54:43;;;;;;;12.93;5.35;;;14.10;99.90;;;;;;5073421;28;20413;-78
2022/06/13 03:57:17;;;;;;;13.30;4.72;;;14.20;99.90;;;;;;5006095;28;20425;-78
2022/06/13 03:59:48;;;;;;;12.48;4.88;;;14.20;99.90;;;;;;5015227;27;20412;-78
2022/06/13 04:02:16;;;;;;;12.65;5.10;;;14.10;99.90;;;;;;5080771;28;20473;-78
2022/06/13 04:04:49;;;;;;;14.45;4.50;;;14.10;99.90;;;;;;5107845;28;20404;-79
2022/06/13 04:07:18;;;;;;;13.45;4.47;;;14.10;99.90;;;;;;5109226;28;20448;-78
2022/06/13 04:09:51;;;;;;;12.95;4.45;;;14.10;99.90;;;;;;5108959;28;20396;-78
2022/06/13 04:12:31;;;;;;;11.82;3.92;;;14.00;99.90;;;;;;5047903;28;20421;-78
2022/06/13 04:15:21;;;;;;;10.80;4.10;;;14.10;99.90;;;;;;5106091;28;20421;-78
2022/06/13 04:17:53;;;;;;;10.60;4.13;;;14.10;99.90;;;;;;5108849;28;20450;-78
2022/06/13 04:20:30;;;;;;;11.23;3.90;;;14.00;99.90;;;;;;5108034;28;20451;-78
2022/06/13 04:23:21;;;;;;;12.50;4.28;;;14.00;99.90;;;;;;5049279;28;20447;-78
2022/06/13 04:26:12;;;;;;;13.32;4.30;;;14.00;99.90;;;;;;5109178;28;20448;-78
2022/06/13 04:28:44;;;;;;;9.00;3.57;;;14.00;99.90;;;;;;4988893;28;20447;-78
2022/06/13 04:31:11;;;;;;;11.10;3.72;;;14.00;99.90;;;;;;5072673;28;20417;-78
2022/06/13 04:33:53;;;;;;;10.05;3.63;;;14.00;99.90;;;;;;5049104;28;20883;-78
2022/06/13 04:36:20;;;;;;;13.35;4.13;;;14.10;99.90;;;;;;5107318;28;20515;-78
2022/06/13 04:38:49;;;;;;;12.60;3.80;;;14.10;99.90;;;;;;5107218;28;20429;-77
2022/06/13 04:41:16;;;;;;;11.00;3.83;;;14.20;99.90;;;;;;5108529;28;20408;-78
2022/06/13 04:43:47;;;;;;;10.18;4.00;;;14.20;99.90;;;;;;5107109;28;20474;-78
2022/06/13 04:46:19;;;;;;;9.80;3.78;;;14.30;99.90;;;;;;5108642;28;20408;-77
2022/06/13 04:48:47;;;;;;;10.32;3.72;;;14.30;99.90;;;;;;5107453;28;20998;-79
2022/06/13 04:51:18;;;;;;;11.60;3.83;;;14.30;99.90;;;;;;5107085;28;20415;-78
2022/06/13 04:53:50;;;;;;;11.57;3.70;;;14.30;99.90;;;;;;5106862;28;20454;-78
2022/06/13 04:56:15;;;;;;;13.27;4.53;;;14.30;99.90;;;;;;5107350;28;20408;-78
2022/06/13 04:58:43;;;;;;;9.57;3.47;;;14.30;99.90;;;;;;5031334;28;20435;-78
2022/06/13 05:01:13;;;;;;;9.13;3.53;;;14.40;99.90;;;;;;5107202;28;20469;-78
2022/06/13 05:03:42;;;;;;;10.27;3.92;;;14.50;99.90;;;;;;5037959;28;20445;-79
2022/06/13 05:06:35;;;;;;;9.10;3.33;;;14.50;99.90;;;;;;5021424;28;20447;-78
2022/06/13 05:09:05;;;;;;;11.68;3.60;;;14.60;99.90;;;;;;5101664;28;20412;-78
2022/06/13 05:11:36;;;;;;;11.93;3.42;;;14.70;99.90;;;;;;5107473;28;20408;-78
2022/06/13 05:14:08;;;;;;;9.35;3.35;;;14.70;99.90;;;;;;5047057;28;20421;-78
2022/06/13 05:16:45;;;;;;;12.50;3.63;;;14.60;99.90;;;;;;5101123;28;20449;-78
2022/06/13 05:19:41;;;;;;;6.80;1.90;;;14.60;99.90;;;;;;5106763;28;21236;-78
2022/06/13 05:22:25;;;;;;;4.38;1.20;;;14.50;99.90;;;;;;5066779;28;20430;-79
2022/06/13 05:25:03;;;;;;;3.05;0.98;;;14.20;99.90;;;;;;5033213;28;20416;-79
2022/06/13 05:27:29;;;;;;;2.83;0.70;;;14.00;99.90;;;;;;5106779;28;20530;-80
2022/06/13 05:29:55;;;;;;;3.73;0.70;;;13.70;99.90;;;;;;5107852;28;20491;-79
2022/06/13 05:32:22;;;;;;;4.43;0.60;;;13.60;99.90;;;;;;5107478;28;20478;-79
2022/06/13 05:34:48;;;;;;;2.75;0.50;;;13.50;99.90;;;;;;5106626;28;20407;-78
2022/06/13 05:37:16;;;;;;;3.22;0.70;;;13.50;99.90;;;;;;5106883;28;20408;-78
2022/06/13 05:39:42;;;;;;;2.58;0.60;;;13.50;99.90;;;;;;5106619;28;21199;-79
2022/06/13 05:42:11;;;;;;;3.90;0.68;;;13.50;99.90;;;;;;5107162;28;20396;-79
2022/06/13 05:44:37;;;;;;;5.15;0.93;;;13.50;99.90;;;;;;5106386;28;20491;-78
2022/06/13 05:47:03;;;;;;;4.05;1.00;;;13.50;99.90;;;;;;5106137;28;20483;-78
2022/06/13 05:49:29;;;;;;;2.65;0.80;;;13.60;99.90;;;;;;5108041;28;20504;-78
2022/06/13 05:51:55;;;;;;;4.03;0.90;;;13.60;99.90;;;;;;5005130;28;20390;-77
2022/06/13 05:54:21;;;;;;;5.82;1.00;;;13.60;99.90;;;;;;5009414;28;20420;-77
2022/06/13 05:56:47;;;;;;;4.80;1.02;;;13.60;99.90;;;;;;5100301;28;20476;-77
2022/06/13 05:59:12;;;;;;;6.38;1.00;;;13.70;99.90;;;;;;5106124;28;20431;-78
2022/06/13 06:01:38;;;;;;;4.77;1.07;;;13.70;99.90;;;;;;5042416;28;20988;-78
2022/06/13 06:04:04;;;;;;;6.43;1.20;;;13.70;99.90;;;;;;5027148;28;21016;-78
2022/06/13 06:06:32;;;;;;;6.00;1.02;;;13.80;99.90;;;;;;5051966;28;20776;-78
2022/06/13 06:08:59;;;;;;;7.22;1.10;;;13.90;99.90;;;;;;5015441;28;20421;-78
2022/06/13 06:11:26;;;;;;;5.35;1.05;;;14.00;99.90;;;;;;5020550;28;20404;-78
2022/06/13 06:13:52;;;;;;;5.00;1.10;;;14.10;99.90;;;;;;5021190;28;20413;-78
2022/06/13 06:16:20;;;;;;;7.70;1.35;;;14.30;99.90;;;;;;5024646;27;20517;-78
2022/06/13 06:18:46;;;;;;;5.93;1.40;;;14.40;99.90;;;;;;5011177;28;20451;-78
2022/06/13 06:21:12;;;;;;;4.80;1.00;;;14.50;99.90;;;;;;5040061;28;20922;-78
2022/06/13 06:23:38;;;;;;;6.97;1.25;;;14.60;99.90;;;;;;5053218;27;20417;-79
2022/06/13 06:26:05;;;;;;;5.72;1.10;;;14.70;99.90;;;;;;5039498;28;20405;-78
2022/06/13 06:28:32;;;;;;;6.80;0.93;;;14.70;99.90;;;;;;5109799;28;20975;-78
2022/06/13 06:30:59;;;;;;;4.18;1.02;;;14.70;99.90;;;;;;5018799;28;20505;-78
2022/06/13 06:33:26;;;;;;;6.90;1.00;;;14.80;99.90;;;;;;5024341;28;20524;-79
2022/06/13 06:35:52;;;;;;;7.55;1.08;;;15.00;99.90;;;;;;5038351;28;20942;-79
2022/06/13 06:38:19;;;;;;;4.03;0.90;;;15.10;99.90;;;;;;5007589;28;20432;-79
2022/06/13 06:40:45;;;;;;;6.32;1.10;;;15.10;99.90;;;;;;5047277;28;20493;-79
2022/06/13 06:43:11;;;;;;;5.15;0.80;;;15.10;99.90;;;;;;5016243;28;20409;-79
2022/06/13 06:45:37;;;;;;;8.77;1.20;;;15.00;99.90;;;;;;5063856;28;20426;-79
2022/06/13 06:48:03;;;;;;;7.95;1.30;;;14.90;99.90;;;;;;4999116;28;20500;-80
2022/06/13 06:50:34;;;;;;;5.75;1.20;;;14.80;99.90;;;;;;5014786;28;20503;-79
2022/06/13 06:53:00;;;;;;;6.63;1.35;;;14.50;99.90;;;;;;5034784;28;20416;-80
2022/06/13 07:01:01;;;;;;;4.55;1.20;;;14.00;99.90;;;;;;5008485;28;20845;-80
2022/06/13 07:03:27;;;;;;;6.70;1.23;;;13.90;99.90;;;;;;5001956;28;20498;-80
2022/06/13 07:05:53;;;;;;;7.30;1.30;;;14.00;99.90;;;;;;5004765;28;20425;-79
2022/06/13 07:08:19;;;;;;;8.40;1.80;;;13.90;99.90;;;;;;5011027;28;20425;-80
2022/06/13 07:10:47;;;;;;;5.77;1.10;;;13.90;99.90;;;;;;5009674;28;20466;-80
2022/06/13 07:13:14;;;;;;;7.00;1.60;;;14.00;99.90;;;;;;5076895;28;20901;-80
2022/06/13 07:15:40;;;;;;;5.10;1.10;;;14.10;99.90;;;;;;5055205;28;20449;-80
2022/06/13 07:18:06;;;;;;;3.80;0.68;;;14.20;99.90;;;;;;5020429;28;20438;-79
2022/06/13 07:20:32;;;;;;;5.43;0.85;;;14.20;99.90;;;;;;5081191;28;20404;-79
2022/06/13 07:22:58;;;;;;;4.57;0.60;;;14.40;99.90;;;;;;5030360;28;20443;-79
2022/06/13 07:25:27;;;;;;;3.97;0.73;;;14.50;99.90;;;;;;5088532;28;20428;-80
2022/06/13 07:27:53;;;;;;;3.45;0.73;;;14.60;99.90;;;;;;5108840;28;20400;-79
2022/06/13 07:30:21;;;;;;;2.87;0.80;;;14.70;99.90;;;;;;5040124;28;21052;-80
2022/06/13 07:32:47;;;;;;;3.72;0.73;;;14.80;99.90;;;;;;5024317;28;20420;-80
2022/06/13 07:35:16;;;;;;;5.53;0.80;;;15.00;99.90;;;;;;5064553;28;20410;-80
2022/06/13 07:40:27;;;;;;;4.18;0.82;;;14.90;99.90;;;;;;5030537;28;20430;-79
2022/06/13 07:42:57;;;;;;;4.55;0.70;;;14.90;99.90;;;;;;5102628;28;20400;-79
2022/06/13 07:45:29;;;;;;;5.82;0.88;;;14.70;99.90;;;;;;5061003;28;20539;-80
2022/06/13 07:47:56;;;;;;;4.53;1.17;;;14.60;99.90;;;;;;5038599;28;21141;-80
2022/06/13 07:50:25;;;;;;;8.03;1.30;;;14.50;99.90;;;;;;5006764;28;20409;-79
2022/06/13 07:52:52;;;;;;;5.15;0.68;;;14.50;99.90;;;;;;5003125;28;20431;-80
2022/06/13 07:55:19;;;;;;;3.72;0.90;;;14.40;99.90;;;;;;5012825;28;20424;-80
2022/06/13 07:57:46;;;;;;;2.90;0.50;;;14.40;99.90;;;;;;5004112;28;20425;-79
2022/06/13 08:00:25;;;;;;;3.72;0.70;;;14.60;99.90;;;;;;5031655;28;20919;-79
2022/06/13 08:02:53;;;;;;;8.37;0.87;;;14.70;99.90;;;;;;5095402;28;20420;-79
2022/06/13 08:05:19;;;;;;;6.57;0.88;;;14.70;99.90;;;;;;5104542;28;20447;-79
2022/06/13 08:07:45;;;;;;;4.57;0.82;;;14.80;99.90;;;;;;5058753;28;20421;-79
2022/06/13 08:10:11;;;;;;;6.73;1.00;;;15.00;99.90;;;;;;5005542;28;20744;-79
2022/06/13 08:12:39;;;;;;;5.82;0.98;;;15.10;99.90;;;;;;5026272;28;20395;-80
2022/06/13 08:15:06;;;;;;;5.72;0.88;;;15.20;99.90;;;;;;5097264;28;20439;-79
2022/06/13 08:17:31;;;;;;;6.65;1.40;;;15.40;99.90;;;;;;5078178;28;21408;-79
2022/06/13 08:19:57;;;;;;;6.70;1.13;;;15.50;99.90;;;;;;4999223;28;20434;-79
2022/06/13 08:22:22;;;;;;;7.22;1.15;;;15.50;99.90;;;;;;5097252;28;21158;-79
2022/06/13 08:24:48;;;;;;;5.27;0.80;;;15.40;99.90;;;;;;5108114;28;20392;-79
2022/06/13 08:27:14;;;;;;;6.00;0.88;;;15.40;99.90;;;;;;5034946;28;20789;-80
2022/06/13 08:29:40;;;;;;;5.00;0.70;;;15.40;99.90;;;;;;5041927;28;20979;-81
2022/06/13 08:32:06;;;;;;;6.25;0.90;;;15.40;99.90;;;;;;5060433;28;20397;-80
2022/06/13 08:34:32;;;;;;;6.10;0.85;;;15.50;99.90;;;;;;5073679;28;20424;-80
2022/06/13 08:36:57;;;;;;;6.05;0.80;;;15.70;99.90;;;;;;5065216;28;20490;-80
2022/06/13 08:39:24;;;;;;;5.03;0.73;;;15.70;99.90;;;;;;5088900;28;20436;-81
2022/06/13 08:41:59;;;;;;;6.37;0.90;;;15.70;99.90;;;;;;5031535;28;20938;-80
2022/06/13 08:44:43;;;;;;;5.57;0.80;;;15.70;99.90;;;;;;5025502;28;20872;-80
2022/06/13 08:47:36;;;;;;;4.60;0.52;;;15.80;99.90;;;;;;5020889;28;20973;-79
2022/06/13 08:50:10;;;;;;;4.72;0.68;;;15.70;99.90;;;;;;4986725;28;20417;-79
2022/06/13 08:53:23;;;;;;;4.93;1.10;;;15.50;99.90;;;;;;5077256;28;20407;-78
2022/06/13 08:55:57;;;;;;;5.87;0.83;;;15.50;99.90;;;;;;5003896;28;20429;-79
2022/06/13 08:58:28;;;;;;;3.55;0.52;;;15.80;99.90;;;;;;4998147;28;20437;-80
2022/06/13 09:01:03;;;;;;;6.03;0.95;;;15.90;99.90;;;;;;5001835;28;20933;-79
2022/06/13 09:03:58;;;;;;;4.25;0.70;;;16.20;99.90;;;;;;5003603;28;20423;-79
2022/06/13 09:06:38;;;;;;;4.78;0.77;;;16.40;99.90;;;;;;5022486;28;20941;-79
2022/06/13 09:09:06;;;;;;;5.07;0.70;;;16.30;99.90;;;;;;5004047;28;20413;-79
2022/06/13 09:11:37;;;;;;;10.35;0.80;;;16.20;99.90;;;;;;5011139;28;20457;-79
2022/06/13 09:14:16;;;;;;;4.38;0.60;;;16.10;99.90;;;;;;5028220;28;20474;-79
2022/06/13 09:16:49;;;;;;;3.45;0.70;;;16.10;99.90;;;;;;5030880;28;20429;-79
2022/06/13 09:19:21;;;;;;;5.78;0.88;;;16.00;99.90;;;;;;5055211;28;20431;-79
2022/06/13 09:22:01;;;;;;;4.55;0.60;;;15.90;99.90;;;;;;5051227;28;20429;-78
2022/06/13 09:24:39;;;;;;;5.13;0.68;;;15.90;99.90;;;;;;5018354;28;21043;-79
2022/06/13 09:27:33;;;;;;;6.72;0.90;;;16.00;99.90;;;;;;5033735;28;20439;-79
2022/06/13 09:30:17;;;;;;;5.65;0.73;;;16.10;99.90;;;;;;5017915;28;20433;-78
2022/06/13 09:32:54;;;;;;;4.78;0.88;;;16.30;99.90;;;;;;5017172;28;20808;-79
2022/06/13 09:35:38;;;;;;;5.20;0.80;;;16.60;99.90;;;;;;5035405;28;20407;-79
2022/06/13 09:38:08;;;;;;;4.50;0.80;;;17.00;99.90;;;;;;5024916;28;21186;-79
2022/06/13 09:41:08;;;;;;;6.10;1.00;;;17.20;99.90;;;;;;5034029;28;20529;-78
2022/06/13 09:43:36;;;;;;;4.75;0.70;;;17.10;99.90;;;;;;5014686;28;20425;-79
2022/06/13 09:46:19;;;;;;;6.85;0.90;;;17.00;99.90;;;;;;5043164;28;20491;-78
2022/06/13 09:49:08;;;;;;;6.93;1.02;;;17.10;99.90;;;;;;5021691;28;20495;-79
2022/06/13 09:52:08;;;;;;;5.22;1.00;;;17.30;99.90;;;;;;5042187;28;21050;-79
2022/06/13 09:55:13;;;;;;;7.90;1.13;;;17.70;99.90;;;;;;5071373;28;20429;-79
2022/06/13 09:57:50;;;;;;;7.80;1.30;;;18.10;99.90;;;;;;5045765;27;20404;-79
2022/06/13 10:00:46;;;;;;;7.72;1.20;;;18.30;99.90;;;;;;5009205;28;20519;-78
2022/06/13 10:03:34;;;;;;;7.07;1.27;;;18.00;99.90;;;;;;5110417;28;20495;-78
2022/06/13 10:06:16;;;;;;;10.27;1.60;;;17.60;99.90;;;;;;5104583;28;20448;-79
2022/06/13 10:09:05;;;;;;;8.10;1.42;;;17.20;99.90;;;;;;5072593;28;20436;-78
2022/06/13 10:11:36;;;;;;;10.63;1.53;;;17.10;99.90;;;;;;5098904;28;20925;-79
2022/06/13 10:14:33;;;;;;;6.88;1.23;;;17.00;99.90;;;;;;5111115;28;20483;-78
2022/06/13 10:17:29;;;;;;;7.65;1.15;;;17.20;99.90;;;;;;5084853;28;20458;-79
2022/06/13 10:20:32;;;;;;;8.30;1.45;;;17.50;99.90;;;;;;5039516;28;20426;-78
2022/06/13 10:23:10;;;;;;;7.80;1.23;;;17.90;99.90;;;;;;5004523;28;20436;-78
2022/06/13 10:26:04;;;;;;;7.45;1.48;;;18.30;99.90;;;;;;5006783;28;20770;-78
2022/06/13 10:28:51;;;;;;;7.78;1.17;;;18.40;99.90;;;;;;5004217;28;20413;-78
2022/06/13 10:31:24;;;;;;;6.80;1.20;;;18.30;99.90;;;;;;5005062;28;20425;-78
2022/06/13 10:34:14;;;;;;;5.93;1.00;;;18.20;99.90;;;;;;5004883;28;20466;-79
2022/06/13 10:37:00;;;;;;;8.55;1.25;;;18.50;99.90;;;;;;5000996;28;20924;-78
2022/06/13 10:39:27;;;;;;;6.40;0.93;;;18.80;99.90;;;;;;4984223;28;20930;-78
2022/06/13 10:41:57;;;;;;;6.18;1.20;;;19.00;99.90;;;;;;5004461;28;20417;-78
2022/06/13 10:44:23;;;;;;;6.05;1.20;;;19.10;99.70;;;;;;5004349;28;20417;-78
2022/06/13 10:46:58;;;;;;;7.90;1.13;;;19.30;99.70;;;;;;5006046;28;20421;-78
2022/06/13 10:49:28;;;;;;;6.70;1.17;;;19.60;99.50;;;;;;4990680;28;20416;-79
2022/06/13 10:52:01;;;;;;;7.88;1.10;;;20.00;98.20;;;;;;5039354;28;20829;-79
2022/06/13 10:54:37;;;;;;;7.10;1.00;;;20.30;98.50;;;;;;5021217;28;20934;-79
2022/06/13 10:57:09;;;;;;;7.95;1.55;;;20.60;97.10;;;;;;5006239;28;21002;-78
2022/06/13 10:59:37;;;;;;;7.75;1.25;;;20.80;97.30;;;;;;5006895;28;20495;-79
2022/06/13 11:02:24;;;;;;;7.55;1.38;;;20.90;97.30;;;;;;5006715;28;20413;-79
2022/06/13 11:05:11;;;;;;;8.95;1.30;;;20.80;96.50;;;;;;5003527;28;20471;-79
2022/06/13 11:08:03;;;;;;;8.25;1.17;;;20.40;96.40;;;;;;5053628;28;20432;-79
2022/06/13 11:10:32;;;;;;;9.07;1.53;;;20.00;95.90;;;;;;5026221;28;20863;-79
2022/06/13 11:12:59;;;;;;;8.95;1.83;;;19.70;96.70;;;;;;5108349;28;20416;-79
2022/06/13 11:24:22;;;;;;;8.15;1.83;;;19.20;99.50;;;;;;5035323;28;20412;-79
2022/06/13 11:29:36;;;;;;;7.53;1.80;;;19.30;98.50;;;;;;5048781;28;20831;-79
2022/06/13 11:32:05;;;;;;;12.37;1.60;;;19.40;98.40;;;;;;5105985;28;20427;-79
2022/06/13 11:34:34;;;;;;;10.88;2.10;;;19.60;99.00;;;;;;5108453;28;20416;-79
2022/06/13 11:37:02;;;;;;;9.02;1.55;;;20.00;99.10;;;;;;5109636;28;20404;-79
2022/06/13 11:39:40;;;;;;;6.50;1.27;;;20.60;98.50;;;;;;5073238;28;20487;-79
2022/06/13 11:42:28;;;;;;;4.38;0.85;;;20.90;97.50;;;;;;5081452;28;20409;-80
2022/06/13 11:45:06;;;;;;;3.92;0.70;;;21.30;95.40;;;;;;5104338;28;20425;-79
2022/06/13 11:47:44;;;;;;;6.72;1.20;;;21.00;91.50;;;;;;5108190;28;20396;-79
2022/06/13 11:50:33;;;;;;;7.07;1.20;;;20.70;94.50;;;;;;5054016;28;20416;-77
2022/06/13 11:55:52;;;;;;;4.25;0.98;;;21.00;93.70;;;;;;5108518;28;20438;-78
2022/06/13 11:58:24;;;;;;;7.18;1.10;;;21.20;93.90;;;;;;5041397;28;20441;-78
2022/06/13 12:00:50;;;;;;;5.03;1.20;;;21.10;92.70;;;;;;5055311;28;20996;-79
2022/06/13 12:03:19;;;;;;;3.90;0.60;;;21.10;93.30;;;;;;5044592;28;20487;-79
2022/06/13 12:06:06;;;;;;;2.78;0.40;;;21.10;93.30;;;;;;5070688;28;20914;-78
2022/06/13 12:08:32;;;;;;;3.05;0.30;;;21.30;92.50;;;;;;5033794;28;20930;-78
2022/06/13 12:11:22;;;;;;;3.33;0.60;;;21.40;89.90;;;;;;5047904;28;20469;-78
2022/06/13 12:13:49;;;;;;;3.08;0.45;;;21.40;91.00;;;;;;5076916;28;20419;-79
2022/06/13 12:16:18;;;;;;;4.53;0.77;;;21.50;90.70;;;;;;5004371;28;21000;-79
2022/06/13 12:19:26;;;;;;;5.13;0.70;;;21.60;90.50;;;;;;5087644;28;20432;-79
2022/06/13 12:22:14;;;;;;;5.30;0.70;;;21.90;90.30;;;;;;5092447;28;20766;-78
2022/06/13 12:25:10;;;;;;;5.57;0.85;;;21.80;90.40;;;;;;5037721;28;20409;-78
2022/06/13 12:27:53;;;;;;;5.78;0.93;;;21.70;90.80;;;;;;5108802;28;20459;-79
2022/06/13 12:30:41;;;;;;;5.18;1.00;;;21.90;91.10;;;;;;5109069;28;20396;-78
2022/06/13 12:33:48;;;;;;;5.20;1.00;;;21.80;90.20;;;;;;5003125;28;20432;-78
2022/06/13 12:36:36;;;;;;;3.90;0.80;;;21.30;90.60;;;;;;5039164;28;20435;-79
2022/06/13 12:39:51;;;;;;;6.05;0.85;;;21.10;90.10;;;;;;5075026;28;20451;-78
2022/06/13 12:42:45;;;;;;;4.87;1.10;;;21.40;90.60;;;;;;5012085;28;20437;-78
2022/06/13 12:45:55;;;;;;;4.25;0.85;;;21.50;90.90;;;;;;5008409;28;20478;-79
2022/06/13 12:48:51;;;;;;;4.68;0.70;;;21.90;90.30;;;;;;5065521;28;20408;-79
2022/06/13 12:51:20;;;;;;;5.53;0.82;;;22.00;88.20;;;;;;5047463;28;20485;-78
2022/06/13 12:54:14;;;;;;;3.88;0.60;;;22.20;90.50;;;;;;5070847;28;20415;-79
2022/06/13 12:56:43;;;;;;;4.67;0.90;;;22.30;82.60;;;;;;5102839;28;20815;-79
2022/06/13 12:59:36;;;;;;;7.20;0.70;;;22.20;85.40;;;;;;5055992;28;20436;-79
2022/06/13 13:02:22;;;;;;;5.20;0.80;;;22.10;87.20;;;;;;5033745;28;20408;-78
2022/06/13 13:04:57;;;;;;;4.93;1.00;;;22.30;86.20;;;;;;5101238;28;20419;-79
2022/06/13 13:07:38;;;;;;;6.25;0.98;;;22.60;87.00;;;;;;5044345;28;20918;-78
2022/06/13 13:10:10;;;;;;;6.18;1.02;;;22.80;85.10;;;;;;5090147;28;20457;-78
2022/06/13 13:13:15;;;;;;;6.40;1.27;;;23.10;84.90;;;;;;5105215;28;20483;-78
2022/06/13 13:16:18;;;;;;;5.53;0.87;;;23.10;75.80;;;;;;5095786;28;20431;-79
2022/06/13 13:19:17;;;;;;;5.93;1.08;;;22.80;77.70;;;;;;5104227;28;20432;-78
2022/06/13 13:22:02;;;;;;;4.97;0.90;;;22.40;79.10;;;;;;5103656;28;20416;-78
2022/06/13 13:24:49;;;;;;;5.30;0.80;;;21.90;80.20;;;;;;5101930;28;20477;-78
2022/06/13 13:27:18;;;;;;;5.22;1.17;;;21.70;81.80;;;;;;5110672;28;20392;-78
2022/06/13 13:30:13;;;;;;;8.10;1.00;;;21.60;80.30;;;;;;5112441;28;20392;-79
2022/06/13 13:33:07;;;;;;;4.80;0.73;;;21.60;81.20;;;;;;5111767;28;20419;-78
2022/06/13 13:35:59;;;;;;;5.13;0.95;;;21.60;82.30;;;;;;5091629;28;20407;-78
2022/06/13 13:38:33;;;;;;;5.97;1.00;;;21.70;80.70;;;;;;5111001;28;20419;-78
2022/06/13 13:41:25;;;;;;;5.50;0.75;;;21.60;83.20;;;;;;5103204;28;20531;-78
2022/06/13 13:44:29;;;;;;;5.53;1.00;;;21.40;80.40;;;;;;5099668;28;20503;-78
2022/06/13 13:47:06;;;;;;;6.47;0.93;;;21.20;81.80;;;;;;5024131;28;20791;-78
2022/06/13 13:49:58;;;;;;;6.78;1.10;;;21.10;83.60;;;;;;5045694;28;20439;-78
2022/06/13 13:52:32;;;;;;;8.25;1.58;;;21.10;84.30;;;;;;5010002;28;20436;-78
2022/06/13 13:55:01;;;;;;;5.65;1.13;;;21.00;87.30;;;;;;5051380;28;20423;-78